Aviation Digital Data Service (ADDS)

Output produced by METARs form (0245 UTC 24 June 2021)
found at http://aviationweather.gov/metar/data/
 
KVNY 232342Z 2400/2424 15014KT P6SM SKC 
     FM240400 14007KT P6SM SKC 
     FM240900 VRB03KT P6SM SKC 
     FM242000 15012KT P6SM SKC